createdAt,value
2019-02-05T00:01:24.455Z,75.10
2019-02-05T00:03:54.755Z,80.30
2019-02-05T00:06:25.367Z,75.90
2019-02-05T00:08:55.524Z,78.80
2019-02-05T00:11:25.845Z,78.40
2019-02-05T00:13:55.992Z,81.80
2019-02-05T00:16:26.229Z,79.60
2019-02-05T00:18:56.450Z,75.00
2019-02-05T00:21:26.825Z,74.50
2019-02-05T00:23:57.108Z,83.30
2019-02-05T00:26:27.485Z,78.90
2019-02-05T00:28:57.702Z,78.80
2019-02-05T00:31:28.007Z,77.00
2019-02-05T00:33:58.591Z,78.60
2019-02-05T00:36:28.819Z,79.80
2019-02-05T00:38:59.103Z,75.20
2019-02-05T00:41:29.397Z,75.60
2019-02-05T00:43:59.577Z,84.60
2019-02-05T00:46:30.155Z,80.40
2019-02-05T00:49:00.445Z,76.50
2019-02-05T00:51:30.633Z,77.00
2019-02-05T00:54:00.935Z,80.80
2019-02-05T00:56:31.269Z,78.30
2019-02-05T00:59:01.449Z,75.70
2019-02-05T01:01:31.719Z,75.30
2019-02-05T01:04:02.032Z,74.50
2019-02-05T01:06:32.353Z,76.00
2019-02-05T01:09:04.195Z,76.20
2019-02-05T01:11:34.560Z,75.90
2019-02-05T01:14:05.530Z,75.00
2019-02-05T01:16:35.817Z,76.30
2019-02-05T01:19:06.189Z,75.10
2019-02-05T01:21:36.634Z,75.10
2019-02-05T01:24:06.985Z,77.70
2019-02-05T01:26:37.251Z,75.70
2019-02-05T01:29:07.556Z,79.40
2019-02-05T01:31:37.874Z,79.00
2019-02-05T01:34:08.151Z,78.80
2019-02-05T01:36:38.377Z,82.30
2019-02-05T01:39:09.082Z,75.00
2019-02-05T01:41:39.231Z,79.80
2019-02-05T01:44:09.491Z,75.30
2019-02-05T01:46:39.750Z,75.90
2019-02-05T01:49:10.128Z,75.30
2019-02-05T01:51:40.286Z,78.50
2019-02-05T01:54:10.858Z,74.60
2019-02-05T01:56:41.139Z,75.70
2019-02-05T01:59:11.407Z,74.80
2019-02-05T02:01:41.610Z,77.00
2019-02-05T02:04:12.005Z,80.30
2019-02-05T02:06:42.215Z,76.40
2019-02-05T02:09:12.686Z,78.20
2019-02-05T02:11:43.045Z,79.30
2019-02-05T02:14:13.259Z,77.80
2019-02-05T02:16:43.504Z,82.00
2019-02-05T02:19:13.758Z,80.40
2019-02-05T02:21:44.070Z,76.90
2019-02-05T02:24:14.219Z,76.70
2019-02-05T02:26:51.817Z,76.50
2019-02-05T02:29:16.334Z,76.10
2019-02-05T02:31:46.523Z,77.00
2019-02-05T02:34:16.802Z,82.00
2019-02-05T02:36:47.372Z,83.70
2019-02-05T02:39:17.683Z,82.30
2019-02-05T02:41:47.796Z,77.30
2019-02-05T02:44:18.118Z,77.00
2019-02-05T02:46:48.298Z,75.90
2019-02-05T02:49:18.582Z,80.00
2019-02-05T02:51:48.834Z,85.70
2019-02-05T02:54:19.088Z,83.40
2019-02-05T02:56:49.328Z,87.30
2019-02-05T02:59:19.547Z,80.70
2019-02-05T03:01:49.935Z,88.70
2019-02-05T03:04:20.601Z,82.00
2019-02-05T03:06:50.903Z,82.40
2019-02-05T03:09:21.136Z,76.70
2019-02-05T03:11:51.474Z,83.10
2019-02-05T03:14:21.742Z,78.20
2019-02-05T03:16:52.129Z,80.70
2019-02-05T03:19:22.663Z,87.50
2019-02-05T03:21:53.055Z,90.10
2019-02-05T03:24:23.391Z,85.70
2019-02-05T03:26:53.757Z,90.90
2019-02-05T03:29:24.244Z,81.90
2019-02-05T03:31:54.541Z,82.00
2019-02-05T03:34:24.695Z,80.10
2019-02-05T03:36:54.996Z,90.20
2019-02-05T03:39:25.415Z,83.50
2019-02-05T03:41:55.757Z,84.30
2019-02-05T03:44:26.159Z,91.10
2019-02-05T03:46:56.502Z,84.40
2019-02-05T03:49:28.238Z,90.40
2019-02-05T03:52:08.654Z,91.80
2019-02-05T03:55:31.081Z,83.40
2019-02-05T03:58:28.165Z,81.40
2019-02-05T04:01:52.082Z,82.00
2019-02-05T04:05:08.452Z,84.60
2019-02-05T04:08:15.885Z,88.10
2019-02-05T04:11:21.367Z,85.40
2019-02-05T04:14:32.887Z,95.30
2019-02-05T04:17:27.340Z,97.30
2019-02-05T04:20:35.883Z,94.70
2019-02-05T04:23:54.337Z,92.70
2019-02-05T04:27:13.375Z,95.50
2019-02-05T04:30:22.635Z,96.20
2019-02-05T04:33:09.310Z,99.90
2019-02-05T04:36:21.125Z,98.10
2019-02-05T04:39:53.781Z,99.20
2019-02-05T04:42:55.874Z,92.90
2019-02-05T04:46:14.391Z,91.00
2019-02-05T04:49:24.172Z,88.30
2019-02-05T04:52:38.320Z,92.40
2019-02-05T04:55:33.046Z,99.90
2019-02-05T04:58:31.308Z,95.50
2019-02-05T05:01:43.087Z,93.70
2019-02-05T05:04:38.288Z,95.10
2019-02-05T05:07:42.832Z,91.30
2019-02-05T05:10:13.184Z,93.90
2019-02-05T05:12:43.458Z,90.60
2019-02-05T05:15:14.035Z,90.50
2019-02-05T05:17:44.195Z,90.00
2019-02-05T05:20:14.469Z,93.30
2019-02-05T05:22:44.890Z,94.00
2019-02-05T05:25:15.210Z,94.20
2019-02-05T05:27:45.502Z,90.50
2019-02-05T05:30:19.708Z,91.90
2019-02-05T05:32:50.184Z,90.60
2019-02-05T05:35:20.412Z,90.80
2019-02-05T05:37:51.150Z,90.00
2019-02-05T05:40:21.384Z,88.20
2019-02-05T05:42:51.727Z,90.30
2019-02-05T05:45:21.891Z,90.60
2019-02-05T05:47:52.248Z,90.50
2019-02-05T05:50:22.507Z,87.90
2019-02-05T05:52:53.001Z,89.80
2019-02-05T05:55:23.392Z,88.20
2019-02-05T05:57:53.739Z,86.10
2019-02-05T06:00:24.082Z,94.00
2019-02-05T06:02:54.514Z,89.00
2019-02-05T06:05:24.948Z,88.20
2019-02-05T06:07:55.600Z,95.40
2019-02-05T06:10:25.875Z,92.00
2019-02-05T06:12:56.100Z,88.00
2019-02-05T06:15:26.402Z,90.30
2019-02-05T06:17:56.556Z,88.20
2019-02-05T06:20:26.944Z,88.10
2019-02-05T06:22:57.502Z,91.10
2019-02-05T06:25:27.814Z,91.10
2019-02-05T06:27:58.107Z,87.30
2019-02-05T06:30:28.420Z,86.50
2019-02-05T06:32:58.676Z,87.10
2019-02-05T06:35:29.007Z,86.50
2019-02-05T06:37:59.224Z,88.70
2019-02-05T06:40:29.524Z,89.90
2019-02-05T06:42:59.853Z,90.70
2019-02-05T06:45:30.134Z,90.20
2019-02-05T06:48:00.501Z,89.50
2019-02-05T06:50:30.726Z,91.80
2019-02-05T06:53:01.114Z,86.40
2019-02-05T06:55:31.343Z,87.60
2019-02-05T06:58:01.633Z,86.80
2019-02-05T07:00:31.892Z,86.70
2019-02-05T07:03:02.294Z,86.70
2019-02-05T07:05:32.565Z,88.40
2019-02-05T07:08:02.880Z,90.00
2019-02-05T07:10:33.470Z,89.00
2019-02-05T07:13:03.801Z,89.80
2019-02-05T07:15:33.971Z,86.70
2019-02-05T07:18:04.518Z,86.30
2019-02-05T07:20:36.429Z,91.70
2019-02-05T07:23:06.663Z,86.10
2019-02-05T07:25:37.082Z,91.00
2019-02-05T07:28:07.471Z,90.50
2019-02-05T07:30:37.826Z,90.30
2019-02-05T07:33:08.210Z,90.60
2019-02-05T07:35:38.860Z,94.10
2019-02-05T07:38:09.266Z,89.80
2019-02-05T07:40:39.630Z,90.00
2019-02-05T07:43:09.880Z,92.10
2019-02-05T07:45:40.112Z,89.60
2019-02-05T07:48:10.478Z,88.40
2019-02-05T07:50:40.793Z,88.10
2019-02-05T07:53:11.310Z,90.00
2019-02-05T07:55:41.664Z,91.20
2019-02-05T07:58:11.950Z,88.30
2019-02-05T08:00:42.138Z,89.60
2019-02-05T08:03:12.526Z,88.00
2019-02-05T08:05:42.763Z,89.00
2019-02-05T08:08:13.524Z,88.20
2019-02-05T08:10:43.865Z,89.40
2019-02-05T08:13:14.127Z,87.10
2019-02-05T08:15:44.550Z,88.50
2019-02-05T08:18:14.852Z,89.50
2019-02-05T08:20:45.123Z,91.20
2019-02-05T08:23:15.269Z,88.50
2019-02-05T08:25:46.017Z,87.30
2019-02-05T08:28:16.310Z,88.90
2019-02-05T08:30:47.974Z,89.50
2019-02-05T08:33:18.187Z,91.10
2019-02-05T08:35:48.609Z,91.70
2019-02-05T08:38:18.861Z,89.30
2019-02-05T08:40:49.509Z,90.00
2019-02-05T08:43:19.790Z,89.20
2019-02-05T08:45:56.690Z,90.40
2019-02-05T08:48:21.957Z,93.20
2019-02-05T08:50:52.173Z,93.20
2019-02-05T08:53:22.515Z,94.00
2019-02-05T08:55:52.940Z,90.90
2019-02-05T08:58:30.511Z,95.50
2019-02-05T09:00:55.211Z,93.80
2019-02-05T09:03:25.603Z,95.50
2019-02-05T09:05:55.869Z,94.50
2019-02-05T09:08:26.267Z,92.70
2019-02-05T09:10:56.769Z,93.80
2019-02-05T09:13:27.145Z,91.90
2019-02-05T09:15:57.354Z,92.40
2019-02-05T09:18:27.654Z,91.60
2019-02-05T09:20:58.033Z,93.60
2019-02-05T09:23:28.227Z,92.20
2019-02-05T09:25:58.808Z,91.50
2019-02-05T09:28:29.054Z,93.30
2019-02-05T09:30:59.343Z,93.90
2019-02-05T09:33:29.803Z,92.90
2019-02-05T09:36:00.113Z,93.60
2019-02-05T09:38:30.393Z,91.70
2019-02-05T09:41:01.154Z,93.30
2019-02-05T09:43:31.416Z,91.70
2019-02-05T09:46:01.776Z,91.10
2019-02-05T09:48:31.998Z,92.50
2019-02-05T09:51:02.381Z,92.90
2019-02-05T09:53:32.740Z,94.00
2019-02-05T09:56:03.444Z,94.30
2019-02-05T09:58:33.791Z,93.60
2019-02-05T10:01:05.075Z,92.20
2019-02-05T10:03:35.423Z,92.20
2019-02-05T10:06:05.669Z,93.20
2019-02-05T10:08:36.046Z,93.40
2019-02-05T10:11:06.691Z,94.10
2019-02-05T10:13:36.999Z,92.50
2019-02-05T10:16:07.401Z,92.30
2019-02-05T10:18:37.780Z,92.30
2019-02-05T10:21:08.036Z,92.20
2019-02-05T10:23:38.431Z,92.50
2019-02-05T10:26:09.026Z,92.20
2019-02-05T10:28:39.204Z,92.00
2019-02-05T10:31:09.562Z,91.90
2019-02-05T10:33:40.000Z,92.00
2019-02-05T10:36:10.179Z,92.70
2019-02-05T10:38:40.480Z,92.20
2019-02-05T10:41:11.470Z,92.10
2019-02-05T10:43:41.756Z,92.60
2019-02-05T10:46:12.038Z,92.00
2019-02-05T10:48:42.307Z,91.80
2019-02-05T10:51:12.580Z,92.60
2019-02-05T10:53:42.895Z,92.20
2019-02-05T10:56:13.453Z,92.30
2019-02-05T10:58:43.781Z,92.10
2019-02-05T11:01:14.172Z,92.00
2019-02-05T11:03:44.498Z,91.80
2019-02-05T11:06:14.697Z,91.80
2019-02-05T11:08:45.106Z,90.80
2019-02-05T11:11:15.506Z,91.90
2019-02-05T11:13:45.774Z,91.90
2019-02-05T11:16:15.922Z,92.10
2019-02-05T11:18:46.236Z,88.40
2019-02-05T11:21:16.574Z,91.60
2019-02-05T11:23:46.932Z,90.40
2019-02-05T11:26:17.698Z,89.00
2019-02-05T11:28:48.009Z,91.60
2019-02-05T11:31:18.271Z,90.40
2019-02-05T11:33:48.511Z,91.20
2019-02-05T11:36:18.874Z,83.30
2019-02-05T11:38:49.240Z,88.40
2019-02-05T11:41:20.016Z,90.00
2019-02-05T11:43:50.161Z,90.00
2019-02-05T11:46:20.372Z,84.20
2019-02-05T11:48:50.764Z,81.80
2019-02-05T11:51:21.102Z,84.70
2019-02-05T11:53:51.346Z,90.70
2019-02-05T11:56:22.159Z,86.20
2019-02-05T11:58:52.386Z,78.80
2019-02-05T12:01:26.200Z,74.50
2019-02-05T12:03:56.510Z,77.60
2019-02-05T12:06:27.134Z,82.00
2019-02-05T12:08:57.459Z,79.20
2019-02-05T12:11:28.047Z,85.30
2019-02-05T12:13:58.227Z,88.30
2019-02-05T12:16:28.453Z,78.40
2019-02-05T12:18:58.698Z,80.50
2019-02-05T12:21:28.996Z,84.10
2019-02-05T12:23:59.346Z,77.10
2019-02-05T12:26:30.050Z,82.50
2019-02-05T12:29:00.385Z,81.00
2019-02-05T12:31:30.646Z,77.70
2019-02-05T12:34:01.053Z,86.40
2019-02-05T12:36:31.465Z,83.30
2019-02-05T12:39:01.637Z,78.40
2019-02-05T12:41:32.454Z,74.40
2019-02-05T12:44:02.731Z,83.10
2019-02-05T12:46:33.186Z,77.10
2019-02-05T12:49:03.447Z,80.10
2019-02-05T12:51:33.758Z,80.60
2019-02-05T12:54:04.040Z,78.00
2019-02-05T12:56:34.749Z,86.30
2019-02-05T12:59:05.210Z,83.60
2019-02-05T13:01:35.623Z,88.60
2019-02-05T13:04:06.132Z,83.70
2019-02-05T13:06:36.337Z,87.50
2019-02-05T13:09:09.168Z,87.60
2019-02-05T13:11:39.347Z,85.20
2019-02-05T13:14:09.653Z,81.10
2019-02-05T13:16:39.909Z,76.90
2019-02-05T13:19:10.273Z,75.50
2019-02-05T13:21:40.537Z,83.80
2019-02-05T13:24:11.086Z,86.50
2019-02-05T13:26:41.367Z,69.20
2019-02-05T13:29:11.624Z,69.30
2019-02-05T13:31:41.927Z,63.80
2019-02-05T13:34:12.173Z,71.20
2019-02-05T13:36:42.774Z,77.50
2019-02-05T13:39:13.871Z,74.10
2019-02-05T13:41:44.253Z,69.10
2019-02-05T13:44:14.532Z,77.50
2019-02-05T13:46:44.829Z,72.80
2019-02-05T13:49:14.974Z,77.80
2019-02-05T13:51:45.263Z,75.40
2019-02-05T13:54:15.510Z,79.60
2019-02-05T13:56:45.765Z,74.20
2019-02-05T13:59:15.943Z,69.80
2019-02-05T14:01:46.234Z,86.80
2019-02-05T14:04:16.804Z,86.40
2019-02-05T14:06:50.249Z,91.10
2019-02-05T14:09:19.221Z,91.40
2019-02-05T14:11:49.467Z,70.10
2019-02-05T14:14:19.649Z,76.20
2019-02-05T14:16:49.803Z,89.70
2019-02-05T14:19:20.114Z,72.60
2019-02-05T14:21:50.354Z,77.20
2019-02-05T14:24:20.764Z,72.70
2019-02-05T14:26:51.038Z,62.60
2019-02-05T14:29:21.334Z,74.20
2019-02-05T14:31:51.615Z,75.10
2019-02-05T14:34:22.044Z,74.80
2019-02-05T14:36:52.464Z,63.60
2019-02-05T14:39:22.875Z,66.00
2019-02-05T14:41:53.247Z,59.00
2019-02-05T14:44:23.494Z,66.10
2019-02-05T14:46:54.100Z,65.60
2019-02-05T14:49:24.396Z,61.20
2019-02-05T14:51:57.706Z,60.50
2019-02-05T14:54:26.509Z,64.40
2019-02-05T14:56:56.964Z,60.30
2019-02-05T14:59:27.469Z,62.80
2019-02-05T15:01:57.827Z,66.10
2019-02-05T15:04:27.995Z,67.10
2019-02-05T15:06:58.290Z,67.40
2019-02-05T15:09:28.788Z,63.10
2019-02-05T15:11:59.216Z,63.90
2019-02-05T15:14:29.492Z,66.10
2019-02-05T15:16:59.696Z,66.00
2019-02-05T15:19:29.987Z,64.50
2019-02-05T15:22:00.228Z,67.10
2019-02-05T15:24:37.101Z,65.30
2019-02-05T15:27:02.556Z,66.70
2019-02-05T15:29:32.890Z,68.90
2019-02-05T15:32:03.235Z,70.80
2019-02-05T15:34:33.420Z,68.80
2019-02-05T15:37:03.682Z,70.70
2019-02-05T15:39:34.010Z,67.00
2019-02-05T15:42:04.276Z,70.30
2019-02-05T15:44:34.526Z,70.90
2019-02-05T15:47:04.805Z,69.70
2019-02-05T15:49:35.081Z,70.40
2019-02-05T15:52:05.722Z,69.80
2019-02-05T15:54:36.186Z,70.30
2019-02-05T15:57:06.407Z,70.60
2019-02-05T15:59:36.673Z,71.00
2019-02-05T16:02:07.221Z,70.70
2019-02-05T16:04:37.606Z,70.50
2019-02-05T16:07:07.957Z,70.60
2019-02-05T16:09:38.230Z,70.50
2019-02-05T16:12:08.426Z,70.80
2019-02-05T16:14:38.699Z,70.40
2019-02-05T16:17:08.983Z,70.40
2019-02-05T16:19:39.300Z,71.00
2019-02-05T16:22:09.788Z,71.40
2019-02-05T16:24:40.134Z,71.20
2019-02-05T16:27:10.381Z,71.90
2019-02-05T16:29:40.837Z,70.70
2019-02-05T16:32:17.595Z,71.20
2019-02-05T16:34:43.199Z,72.40
2019-02-05T16:37:13.758Z,70.80
2019-02-05T16:39:44.054Z,70.90
2019-02-05T16:42:14.357Z,70.70
2019-02-05T16:44:44.757Z,72.30
2019-02-05T16:47:15.172Z,75.10
2019-02-05T16:49:47.099Z,71.20
2019-02-05T16:52:17.339Z,72.70
2019-02-05T16:54:47.658Z,71.40
2019-02-05T16:57:18.067Z,71.20
2019-02-05T16:59:48.438Z,71.40
2019-02-05T17:02:28.567Z,72.40
2019-02-05T17:04:50.525Z,72.30
2019-02-05T17:07:20.852Z,72.10
2019-02-05T17:09:51.269Z,76.50
2019-02-05T17:12:21.586Z,73.00
2019-02-05T17:14:51.852Z,72.30
2019-02-05T17:17:22.354Z,73.50
2019-02-05T17:19:52.699Z,73.70
2019-02-05T17:22:22.942Z,72.40
2019-02-05T17:24:53.309Z,75.40
2019-02-05T17:27:23.586Z,74.30
2019-02-05T17:29:54.236Z,75.90
2019-02-05T17:32:24.466Z,73.10
2019-02-05T17:34:54.835Z,72.60
2019-02-05T17:37:25.140Z,75.30
2019-02-05T17:39:55.531Z,73.20
2019-02-05T17:42:25.887Z,72.70
2019-02-05T17:44:56.658Z,72.90
2019-02-05T17:47:26.909Z,72.50
2019-02-05T17:49:57.237Z,73.00
2019-02-05T17:52:27.673Z,73.50
2019-02-05T17:54:58.260Z,73.80
2019-02-05T17:57:28.581Z,76.20
2019-02-05T17:59:59.145Z,73.80
2019-02-05T18:02:29.406Z,73.80
2019-02-05T18:04:59.615Z,74.00
2019-02-05T18:07:29.894Z,79.00
2019-02-05T18:10:00.346Z,77.50
2019-02-05T18:12:30.974Z,74.00
2019-02-05T18:15:01.373Z,73.40
2019-02-05T18:17:31.666Z,77.10
2019-02-05T18:20:01.985Z,74.40
2019-02-05T18:22:32.379Z,76.00
2019-02-05T18:25:02.782Z,74.90
2019-02-05T18:27:33.297Z,74.10
2019-02-05T18:30:05.190Z,84.30
2019-02-05T18:32:35.493Z,75.40
2019-02-05T18:35:06.914Z,75.50
2019-02-05T18:37:37.310Z,77.30
2019-02-05T18:40:09.120Z,76.50
2019-02-05T18:42:39.439Z,77.00
2019-02-05T18:45:11.434Z,79.90
2019-02-05T18:47:41.693Z,77.30
2019-02-05T18:50:15.151Z,76.50
2019-02-05T18:52:45.732Z,76.90
2019-02-05T18:55:16.124Z,79.20
2019-02-05T18:57:46.467Z,77.90
2019-02-05T19:00:38.681Z,75.10
2019-02-05T19:03:14.980Z,75.30
2019-02-05T19:05:39.964Z,76.40
2019-02-05T19:08:10.350Z,76.30
2019-02-05T19:10:40.617Z,76.00
2019-02-05T19:13:11.019Z,76.20
2019-02-05T19:15:41.311Z,74.80
2019-02-05T19:18:11.684Z,75.50
2019-02-05T19:20:41.986Z,75.20
2019-02-05T19:23:12.401Z,74.80
2019-02-05T19:26:00.975Z,74.90
2019-02-05T19:28:33.132Z,74.70
2019-02-05T19:31:13.788Z,75.10
2019-02-05T19:33:44.097Z,74.90
2019-02-05T19:36:14.507Z,74.40
2019-02-05T19:38:45.124Z,74.00
2019-02-05T19:41:15.499Z,75.10
2019-02-05T19:43:45.750Z,74.70
2019-02-05T19:46:35.125Z,74.90
2019-02-05T19:49:27.195Z,74.70
2019-02-05T19:51:57.671Z,76.50
2019-02-05T19:54:28.197Z,77.50
2019-02-05T19:56:58.591Z,74.70
2019-02-05T19:59:29.334Z,75.30
2019-02-05T20:01:59.665Z,76.90
2019-02-05T20:04:29.899Z,74.70
2019-02-05T20:07:00.307Z,74.20
2019-02-05T20:09:30.665Z,76.00
2019-02-05T20:12:00.917Z,74.90
2019-02-05T20:14:31.280Z,77.50
2019-02-05T20:17:01.671Z,76.00
2019-02-05T20:19:32.116Z,75.60
2019-02-05T20:22:02.431Z,75.00
2019-02-05T20:24:32.830Z,75.00
2019-02-05T20:27:03.178Z,75.00
2019-02-05T20:29:33.509Z,75.30
2019-02-05T20:32:04.322Z,74.70
2019-02-05T20:34:34.897Z,75.00
2019-02-05T20:37:05.417Z,76.20
2019-02-05T20:39:35.701Z,75.30
2019-02-05T20:42:06.061Z,74.20
2019-02-05T20:44:36.547Z,74.80
2019-02-05T20:47:07.297Z,75.10
2019-02-05T20:49:37.522Z,75.30
2019-02-05T20:52:08.960Z,75.00
2019-02-05T20:54:39.208Z,75.60
2019-02-05T20:57:09.541Z,76.60
2019-02-05T20:59:39.772Z,75.10
2019-02-05T21:02:10.571Z,75.20
2019-02-05T21:04:48.642Z,75.30
2019-02-05T21:07:19.059Z,74.50
2019-02-05T21:09:49.261Z,75.40
2019-02-05T21:12:19.492Z,75.30
2019-02-05T21:14:49.727Z,78.00
2019-02-05T21:17:19.987Z,78.10
2019-02-05T21:19:50.219Z,75.60
2019-02-05T21:22:20.521Z,78.10
2019-02-05T21:24:50.926Z,78.40
2019-02-05T21:27:21.246Z,77.50
2019-02-05T21:29:51.542Z,75.40
2019-02-05T21:32:21.851Z,75.90
2019-02-05T21:34:52.201Z,75.90
2019-02-05T21:37:22.532Z,74.50
2019-02-05T21:40:02.072Z,76.20
2019-02-05T21:42:24.873Z,75.70
2019-02-05T21:44:55.472Z,75.30
2019-02-05T21:47:25.743Z,75.90
2019-02-05T21:49:55.980Z,75.70
2019-02-05T21:52:26.278Z,77.50
2019-02-05T21:54:56.489Z,75.80
2019-02-05T21:57:26.733Z,76.10
2019-02-05T21:59:57.394Z,76.20
2019-02-05T22:02:27.786Z,76.40
2019-02-05T22:04:58.073Z,76.50
2019-02-05T22:07:28.340Z,76.90
2019-02-05T22:09:58.693Z,78.60
2019-02-05T22:12:29.685Z,77.90
2019-02-05T22:15:00.240Z,76.10
2019-02-05T22:17:30.614Z,78.60
2019-02-05T22:20:01.024Z,78.70
2019-02-05T22:22:31.250Z,77.00
2019-02-05T22:25:01.607Z,78.00
2019-02-05T22:27:31.908Z,79.20
2019-02-05T22:30:02.238Z,77.10
2019-02-05T22:32:32.909Z,88.40
2019-02-05T22:35:03.332Z,84.30
2019-02-05T22:37:33.595Z,90.20
2019-02-05T22:40:04.666Z,92.30
2019-02-05T22:42:34.904Z,84.40
2019-02-05T22:45:06.981Z,84.00
2019-02-05T22:47:37.245Z,86.90
2019-02-05T22:50:11.444Z,87.50
2019-02-05T22:52:41.809Z,94.60
2019-02-05T22:55:12.512Z,96.50
2019-02-05T22:57:42.995Z,98.00
2019-02-05T23:00:50.553Z,90.80
2019-02-05T23:03:49.315Z,90.40
2019-02-05T23:06:30.775Z,95.40
2019-02-05T23:09:17.007Z,94.10
2019-02-05T23:12:20.491Z,93.50
2019-02-05T23:14:54.986Z,95.50
2019-02-05T23:17:25.465Z,96.50
2019-02-05T23:19:55.671Z,91.70
2019-02-05T23:22:26.031Z,91.30
2019-02-05T23:24:56.408Z,94.30
2019-02-05T23:27:26.886Z,90.60
2019-02-05T23:29:57.144Z,94.70
2019-02-05T23:32:27.409Z,93.30
2019-02-05T23:35:02.243Z,99.00
2019-02-05T23:37:29.782Z,99.90
2019-02-05T23:40:00.229Z,95.40
2019-02-05T23:42:30.594Z,98.80
2019-02-05T23:45:00.867Z,99.90
2019-02-05T23:47:31.023Z,96.70
2019-02-05T23:50:01.460Z,96.60
2019-02-05T23:52:31.747Z,94.50
2019-02-05T23:55:02.274Z,93.50
2019-02-05T23:57:32.526Z,93.10
